sensor_id;sensor_type;location;lat;lon;timestamp;pressure;altitude;pressure_sealevel;temperature;humidity
76694;BME280;69667;52.136;5.424;2024-02-26T00:00:20;100121.41;;;4.97;100.00
76694;BME280;69667;52.136;5.424;2024-02-26T00:02:49;100132.19;;;4.96;100.00
76694;BME280;69667;52.136;5.424;2024-02-26T00:05:17;100126.94;;;4.94;100.00
76694;BME280;69667;52.136;5.424;2024-02-26T00:10:41;100138.91;;;4.89;100.00
76694;BME280;69667;52.136;5.424;2024-02-26T00:13:11;100130.31;;;4.84;100.00
76694;BME280;69667;52.136;5.424;2024-02-26T00:15:41;100134.69;;;4.85;100.00
76694;BME280;69667;52.136;5.424;2024-02-26T00:18:10;100136.59;;;4.83;100.00
76694;BME280;69667;52.136;5.424;2024-02-26T00:20:39;100135.84;;;4.81;100.00
76694;BME280;69667;52.136;5.424;2024-02-26T00:23:10;100143.19;;;4.77;100.00
76694;BME280;69667;52.136;5.424;2024-02-26T00:25:39;100140.50;;;4.77;100.00
76694;BME280;69667;52.136;5.424;2024-02-26T00:28:07;100146.06;;;4.74;100.00
76694;BME280;69667;52.136;5.424;2024-02-26T00:30:35;100142.72;;;4.71;100.00
76694;BME280;69667;52.136;5.424;2024-02-26T00:33:05;100138.72;;;4.64;100.00
76694;BME280;69667;52.136;5.424;2024-02-26T00:35:34;100145.97;;;4.62;100.00
76694;BME280;69667;52.136;5.424;2024-02-26T00:38:03;100141.47;;;4.62;100.00
76694;BME280;69667;52.136;5.424;2024-02-26T00:40:32;100145.09;;;4.61;100.00
76694;BME280;69667;52.136;5.424;2024-02-26T00:43:20;100137.97;;;4.62;100.00
76694;BME280;69667;52.136;5.424;2024-02-26T00:45:54;100138.16;;;4.59;100.00
76694;BME280;69667;52.136;5.424;2024-02-26T00:48:23;100139.00;;;4.59;100.00
76694;BME280;69667;52.136;5.424;2024-02-26T00:50:53;100157.91;;;4.56;100.00
76694;BME280;69667;52.136;5.424;2024-02-26T00:53:28;100147.22;;;4.56;100.00
76694;BME280;69667;52.136;5.424;2024-02-26T00:55:57;100152.66;;;4.55;100.00
76694;BME280;69667;52.136;5.424;2024-02-26T00:58:29;100149.31;;;4.51;100.00
76694;BME280;69667;52.136;5.424;2024-02-26T01:00:58;100151.31;;;4.48;100.00
76694;BME280;69667;52.136;5.424;2024-02-26T01:03:28;100153.13;;;4.47;100.00
76694;BME280;69667;52.136;5.424;2024-02-26T01:05:56;100156.75;;;4.46;100.00
76694;BME280;69667;52.136;5.424;2024-02-26T01:08:25;100162.75;;;4.50;100.00
76694;BME280;69667;52.136;5.424;2024-02-26T01:10:53;100145.13;;;4.47;100.00
76694;BME280;69667;52.136;5.424;2024-02-26T01:13:26;100144.25;;;4.47;100.00
76694;BME280;69667;52.136;5.424;2024-02-26T01:15:55;100142.50;;;4.46;100.00
76694;BME280;69667;52.136;5.424;2024-02-26T01:18:32;100151.59;;;4.43;100.00
76694;BME280;69667;52.136;5.424;2024-02-26T01:21:00;100147.13;;;4.44;100.00
76694;BME280;69667;52.136;5.424;2024-02-26T01:23:30;100150.72;;;4.43;100.00
76694;BME280;69667;52.136;5.424;2024-02-26T01:25:58;100147.13;;;4.44;100.00
76694;BME280;69667;52.136;5.424;2024-02-26T01:28:26;100142.63;;;4.44;100.00
76694;BME280;69667;52.136;5.424;2024-02-26T01:30:54;100137.28;;;4.44;100.00
76694;BME280;69667;52.136;5.424;2024-02-26T01:33:27;100139.84;;;4.46;100.00
76694;BME280;69667;52.136;5.424;2024-02-26T01:35:55;100133.66;;;4.45;100.00
76694;BME280;69667;52.136;5.424;2024-02-26T01:38:24;100131.09;;;4.44;100.00
76694;BME280;69667;52.136;5.424;2024-02-26T01:40:52;100130.03;;;4.46;100.00
76694;BME280;69667;52.136;5.424;2024-02-26T01:43:27;100129.94;;;4.48;100.00
76694;BME280;69667;52.136;5.424;2024-02-26T01:45:56;100129.09;;;4.47;100.00
76694;BME280;69667;52.136;5.424;2024-02-26T01:48:24;100122.69;;;4.50;100.00
76694;BME280;69667;52.136;5.424;2024-02-26T01:50:53;100128.78;;;4.52;100.00
76694;BME280;69667;52.136;5.424;2024-02-26T01:53:44;100129.56;;;4.54;100.00
76694;BME280;69667;52.136;5.424;2024-02-26T01:56:17;100133.94;;;4.55;100.00
76694;BME280;69667;52.136;5.424;2024-02-26T01:58:46;100141.88;;;4.56;100.00
76694;BME280;69667;52.136;5.424;2024-02-26T02:01:15;100139.97;;;4.58;100.00
76694;BME280;69667;52.136;5.424;2024-02-26T02:03:45;100138.06;;;4.60;100.00
76694;BME280;69667;52.136;5.424;2024-02-26T02:06:14;100138.78;;;4.62;100.00
76694;BME280;69667;52.136;5.424;2024-02-26T02:08:43;100146.75;;;4.64;100.00
76694;BME280;69667;52.136;5.424;2024-02-26T02:11:14;100154.56;;;4.67;100.00
76694;BME280;69667;52.136;5.424;2024-02-26T02:13:43;100145.59;;;4.68;100.00
76694;BME280;69667;52.136;5.424;2024-02-26T02:16:13;100151.69;;;4.70;100.00
76694;BME280;69667;52.136;5.424;2024-02-26T02:18:41;100153.50;;;4.69;100.00
76694;BME280;69667;52.136;5.424;2024-02-26T02:21:09;100153.50;;;4.69;100.00
76694;BME280;69667;52.136;5.424;2024-02-26T02:23:38;100152.47;;;4.72;100.00
76694;BME280;69667;52.136;5.424;2024-02-26T02:26:07;100154.19;;;4.73;100.00
76694;BME280;69667;52.136;5.424;2024-02-26T02:31:24;100163.06;;;4.73;100.00
76694;BME280;69667;52.136;5.424;2024-02-26T02:33:52;100162.88;;;4.76;100.00
76694;BME280;69667;52.136;5.424;2024-02-26T02:36:21;100163.63;;;4.78;100.00
76694;BME280;69667;52.136;5.424;2024-02-26T02:38:52;100167.19;;;4.79;100.00
76694;BME280;69667;52.136;5.424;2024-02-26T02:41:21;100166.22;;;4.80;100.00
76694;BME280;69667;52.136;5.424;2024-02-26T02:43:51;100170.59;;;4.81;100.00
76694;BME280;69667;52.136;5.424;2024-02-26T02:46:19;100179.47;;;4.81;100.00
76694;BME280;69667;52.136;5.424;2024-02-26T02:48:48;100181.28;;;4.81;100.00
76694;BME280;69667;52.136;5.424;2024-02-26T02:51:18;100191.88;;;4.82;100.00
76694;BME280;69667;52.136;5.424;2024-02-26T02:53:46;100183.84;;;4.82;100.00
76694;BME280;69667;52.136;5.424;2024-02-26T02:56:16;100182.91;;;4.83;100.00
76694;BME280;69667;52.136;5.424;2024-02-26T02:58:45;100190.84;;;4.85;100.00
76694;BME280;69667;52.136;5.424;2024-02-26T03:01:13;100195.22;;;4.86;100.00
76694;BME280;69667;52.136;5.424;2024-02-26T03:04:04;100189.78;;;4.87;100.00
76694;BME280;69667;52.136;5.424;2024-02-26T03:06:41;100197.78;;;4.87;100.00
76694;BME280;69667;52.136;5.424;2024-02-26T03:09:10;100205.66;;;4.90;100.00
76694;BME280;69667;52.136;5.424;2024-02-26T03:11:39;100214.50;;;4.91;100.00
76694;BME280;69667;52.136;5.424;2024-02-26T03:14:07;100211.00;;;4.90;100.00
76694;BME280;69667;52.136;5.424;2024-02-26T03:16:36;100223.50;;;4.90;100.00
76694;BME280;69667;52.136;5.424;2024-02-26T03:19:05;100226.28;;;4.88;100.00
76694;BME280;69667;52.136;5.424;2024-02-26T03:21:33;100237.91;;;4.87;100.00
76694;BME280;69667;52.136;5.424;2024-02-26T03:24:07;100229.97;;;4.86;100.00
76694;BME280;69667;52.136;5.424;2024-02-26T03:26:38;100232.75;;;4.84;100.00
76694;BME280;69667;52.136;5.424;2024-02-26T03:29:06;100232.75;;;4.84;100.00
76694;BME280;69667;52.136;5.424;2024-02-26T03:31:34;100233.72;;;4.83;100.00
76694;BME280;69667;52.136;5.424;2024-02-26T03:34:06;100244.50;;;4.82;100.00
76694;BME280;69667;52.136;5.424;2024-02-26T03:36:34;100247.28;;;4.80;100.00
76694;BME280;69667;52.136;5.424;2024-02-26T03:39:11;100247.44;;;4.77;100.00
76694;BME280;69667;52.136;5.424;2024-02-26T03:41:39;100246.50;;;4.78;100.00
76694;BME280;69667;52.136;5.424;2024-02-26T03:44:07;100240.38;;;4.76;100.00
76694;BME280;69667;52.136;5.424;2024-02-26T03:46:36;100252.03;;;4.75;100.00
76694;BME280;69667;52.136;5.424;2024-02-26T03:49:04;100244.97;;;4.74;100.00
76694;BME280;69667;52.136;5.424;2024-02-26T03:51:33;100252.22;;;4.72;100.00
76694;BME280;69667;52.136;5.424;2024-02-26T03:54:07;100258.41;;;4.73;100.00
76694;BME280;69667;52.136;5.424;2024-02-26T03:56:37;100246.84;;;4.72;100.00
76694;BME280;69667;52.136;5.424;2024-02-26T03:59:05;100250.50;;;4.71;100.00
76694;BME280;69667;52.136;5.424;2024-02-26T04:01:33;100251.47;;;4.70;100.00
76694;BME280;69667;52.136;5.424;2024-02-26T04:04:04;100252.50;;;4.68;100.00
76694;BME280;69667;52.136;5.424;2024-02-26T04:06:33;100248.88;;;4.69;100.00
76694;BME280;69667;52.136;5.424;2024-02-26T04:09:01;100249.72;;;4.69;100.00
76694;BME280;69667;52.136;5.424;2024-02-26T04:11:31;100252.31;;;4.71;100.00
76694;BME280;69667;52.136;5.424;2024-02-26T04:14:20;100253.25;;;4.70;100.00
76694;BME280;69667;52.136;5.424;2024-02-26T04:16:48;100261.28;;;4.70;100.00
76694;BME280;69667;52.136;5.424;2024-02-26T04:19:19;100258.59;;;4.70;100.00
76694;BME280;69667;52.136;5.424;2024-02-26T04:21:48;100262.16;;;4.70;100.00
76694;BME280;69667;52.136;5.424;2024-02-26T04:24:16;100255.06;;;4.69;100.00
76694;BME280;69667;52.136;5.424;2024-02-26T04:26:44;100263.00;;;4.71;100.00
76694;BME280;69667;52.136;5.424;2024-02-26T04:29:13;100271.78;;;4.73;100.00
76694;BME280;69667;52.136;5.424;2024-02-26T04:31:41;100273.59;;;4.72;100.00
76694;BME280;69667;52.136;5.424;2024-02-26T04:34:11;100272.66;;;4.73;100.00
76694;BME280;69667;52.136;5.424;2024-02-26T04:36:41;100274.38;;;4.74;100.00
76694;BME280;69667;52.136;5.424;2024-02-26T04:39:10;100293.16;;;4.73;100.00
76694;BME280;69667;52.136;5.424;2024-02-26T04:41:38;100284.28;;;4.72;100.00
76694;BME280;69667;52.136;5.424;2024-02-26T04:44:06;100280.78;;;4.72;100.00
76694;BME280;69667;52.136;5.424;2024-02-26T04:46:35;100277.22;;;4.71;100.00
76694;BME280;69667;52.136;5.424;2024-02-26T04:49:27;100288.69;;;4.73;100.00
76694;BME280;69667;52.136;5.424;2024-02-26T04:51:56;100285.81;;;4.76;100.00
76694;BME280;69667;52.136;5.424;2024-02-26T04:54:24;100294.63;;;4.78;100.00
76694;BME280;69667;52.136;5.424;2024-02-26T04:56:55;100294.72;;;4.77;100.00
76694;BME280;69667;52.136;5.424;2024-02-26T04:59:23;100292.03;;;4.77;100.00
76694;BME280;69667;52.136;5.424;2024-02-26T05:01:51;100291.94;;;4.78;100.00
76694;BME280;69667;52.136;5.424;2024-02-26T05:04:20;100291.94;;;4.78;100.00
76694;BME280;69667;52.136;5.424;2024-02-26T05:06:48;100302.66;;;4.78;100.00
76694;BME280;69667;52.136;5.424;2024-02-26T05:09:17;100297.28;;;4.78;100.00
76694;BME280;69667;52.136;5.424;2024-02-26T05:11:46;100303.66;;;4.76;100.00
76694;BME280;69667;52.136;5.424;2024-02-26T05:14:14;100301.78;;;4.78;100.00
76694;BME280;69667;52.136;5.424;2024-02-26T05:16:42;100307.13;;;4.78;100.00
76694;BME280;69667;52.136;5.424;2024-02-26T05:19:11;100303.56;;;4.77;100.00
76694;BME280;69667;52.136;5.424;2024-02-26T05:21:39;100306.25;;;4.77;100.00
76694;BME280;69667;52.136;5.424;2024-02-26T05:24:08;100311.69;;;4.76;100.00
76694;BME280;69667;52.136;5.424;2024-02-26T05:26:56;100308.19;;;4.75;100.00
76694;BME280;69667;52.136;5.424;2024-02-26T05:29:24;100319.72;;;4.76;100.00
76694;BME280;69667;52.136;5.424;2024-02-26T05:31:53;100313.63;;;4.74;100.00
76694;BME280;69667;52.136;5.424;2024-02-26T05:34:21;100309.31;;;4.71;100.00
76694;BME280;69667;52.136;5.424;2024-02-26T05:36:51;100315.63;;;4.70;100.00
76694;BME280;69667;52.136;5.424;2024-02-26T05:39:19;100318.19;;;4.72;100.00
76694;BME280;69667;52.136;5.424;2024-02-26T05:41:47;100314.66;;;4.71;100.00
76694;BME280;69667;52.136;5.424;2024-02-26T05:44:17;100324.47;;;4.71;100.00
76694;BME280;69667;52.136;5.424;2024-02-26T05:46:49;100321.78;;;4.71;100.00
76694;BME280;69667;52.136;5.424;2024-02-26T05:49:18;100324.56;;;4.69;100.00
76694;BME280;69667;52.136;5.424;2024-02-26T05:51:47;100339.75;;;4.69;100.00
76694;BME280;69667;52.136;5.424;2024-02-26T05:54:15;100329.13;;;4.67;100.00
76694;BME280;69667;52.136;5.424;2024-02-26T05:56:48;100333.53;;;4.68;100.00
76694;BME280;69667;52.136;5.424;2024-02-26T05:59:17;100336.22;;;4.68;100.00
76694;BME280;69667;52.136;5.424;2024-02-26T06:01:46;100350.44;;;4.69;100.00
76694;BME280;69667;52.136;5.424;2024-02-26T06:04:14;100352.16;;;4.70;100.00
76694;BME280;69667;52.136;5.424;2024-02-26T06:07:13;100347.69;;;4.70;100.00
76694;BME280;69667;52.136;5.424;2024-02-26T06:09:46;100352.06;;;4.71;100.00
76694;BME280;69667;52.136;5.424;2024-02-26T06:12:15;100341.38;;;4.71;100.00
76694;BME280;69667;52.136;5.424;2024-02-26T06:14:44;100345.00;;;4.70;100.00
76694;BME280;69667;52.136;5.424;2024-02-26T06:17:12;100359.13;;;4.72;100.00
76694;BME280;69667;52.136;5.424;2024-02-26T06:19:40;100353.72;;;4.74;100.00
76694;BME280;69667;52.136;5.424;2024-02-26T06:22:08;100373.03;;;4.79;100.00
76694;BME280;69667;52.136;5.424;2024-02-26T06:24:37;100378.44;;;4.77;100.00
76694;BME280;69667;52.136;5.424;2024-02-26T06:27:06;100373.94;;;4.78;100.00
76694;BME280;69667;52.136;5.424;2024-02-26T06:29:34;100376.63;;;4.78;100.00
76694;BME280;69667;52.136;5.424;2024-02-26T06:32:03;100365.06;;;4.77;100.00
76694;BME280;69667;52.136;5.424;2024-02-26T06:37:33;100379.19;;;4.79;100.00
76694;BME280;69667;52.136;5.424;2024-02-26T06:40:03;100389.91;;;4.79;100.00
76694;BME280;69667;52.136;5.424;2024-02-26T06:42:33;100382.84;;;4.78;100.00
76694;BME280;69667;52.136;5.424;2024-02-26T06:45:03;100388.19;;;4.78;100.00
76694;BME280;69667;52.136;5.424;2024-02-26T06:47:32;100394.41;;;4.79;100.00
76694;BME280;69667;52.136;5.424;2024-02-26T06:50:01;100394.47;;;4.77;100.00
76694;BME280;69667;52.136;5.424;2024-02-26T06:52:30;100394.47;;;4.77;100.00
76694;BME280;69667;52.136;5.424;2024-02-26T06:54:58;100401.56;;;4.78;100.00
76694;BME280;69667;52.136;5.424;2024-02-26T06:57:27;100396.97;;;4.80;100.00
76694;BME280;69667;52.136;5.424;2024-02-26T06:59:55;100404.03;;;4.81;100.00
76694;BME280;69667;52.136;5.424;2024-02-26T07:02:23;100411.09;;;4.82;100.00
76694;BME280;69667;52.136;5.424;2024-02-26T07:04:52;100406.63;;;4.83;100.00
76694;BME280;69667;52.136;5.424;2024-02-26T07:07:20;100407.41;;;4.85;100.00
76694;BME280;69667;52.136;5.424;2024-02-26T07:12:35;100418.00;;;4.86;100.00
76694;BME280;69667;52.136;5.424;2024-02-26T07:15:04;100419.72;;;4.87;100.00
76694;BME280;69667;52.136;5.424;2024-02-26T07:17:45;100427.66;;;4.89;100.00
76694;BME280;69667;52.136;5.424;2024-02-26T07:20:15;100426.72;;;4.90;100.00
76694;BME280;69667;52.136;5.424;2024-02-26T07:22:45;100434.63;;;4.91;100.00
76694;BME280;69667;52.136;5.424;2024-02-26T07:25:15;100435.41;;;4.93;100.00
76694;BME280;69667;52.136;5.424;2024-02-26T07:27:43;100447.81;;;4.94;100.00
76694;BME280;69667;52.136;5.424;2024-02-26T07:30:12;100442.38;;;4.96;100.00
76694;BME280;69667;52.136;5.424;2024-02-26T07:32:41;100452.97;;;4.97;100.00
76694;BME280;69667;52.136;5.424;2024-02-26T07:35:18;100445.72;;;4.99;100.00
76694;BME280;69667;52.136;5.424;2024-02-26T07:37:48;100441.34;;;4.98;100.00
76694;BME280;69667;52.136;5.424;2024-02-26T07:41:08;100458.91;;;5.02;100.00
76694;BME280;69667;52.136;5.424;2024-02-26T07:43:37;100452.63;;;5.03;100.00
76694;BME280;69667;52.136;5.424;2024-02-26T07:46:05;100465.03;;;5.04;100.00
76694;BME280;69667;52.136;5.424;2024-02-26T07:48:34;100448.91;;;5.06;100.00
76694;BME280;69667;52.136;5.424;2024-02-26T07:51:04;100459.59;;;5.06;100.00
76694;BME280;69667;52.136;5.424;2024-02-26T07:53:32;100462.28;;;5.06;100.00
76694;BME280;69667;52.136;5.424;2024-02-26T07:56:01;100469.47;;;5.05;100.00
76694;BME280;69667;52.136;5.424;2024-02-26T07:58:32;100474.72;;;5.07;100.00
76694;BME280;69667;52.136;5.424;2024-02-26T08:01:01;100477.31;;;5.08;100.00
76694;BME280;69667;52.136;5.424;2024-02-26T08:03:30;100479.88;;;5.10;100.00
76694;BME280;69667;52.136;5.424;2024-02-26T08:08:53;100484.13;;;5.14;100.00
76694;BME280;69667;52.136;5.424;2024-02-26T08:11:22;100488.50;;;5.15;100.00
76694;BME280;69667;52.136;5.424;2024-02-26T08:13:50;100500.81;;;5.17;100.00
76694;BME280;69667;52.136;5.424;2024-02-26T08:16:19;100496.34;;;5.18;100.00
76694;BME280;69667;52.136;5.424;2024-02-26T08:18:47;100500.56;;;5.22;100.00
76694;BME280;69667;52.136;5.424;2024-02-26T08:21:15;100507.63;;;5.23;100.00
76694;BME280;69667;52.136;5.424;2024-02-26T08:23:44;100502.28;;;5.23;100.00
76694;BME280;69667;52.136;5.424;2024-02-26T08:26:12;100510.22;;;5.25;100.00
76694;BME280;69667;52.136;5.424;2024-02-26T08:28:41;100511.97;;;5.26;100.00
76694;BME280;69667;52.136;5.424;2024-02-26T08:31:10;100512.78;;;5.26;100.00
76694;BME280;69667;52.136;5.424;2024-02-26T08:33:41;100519.22;;;5.24;100.00
76694;BME280;69667;52.136;5.424;2024-02-26T08:36:11;100524.56;;;5.24;100.00
76694;BME280;69667;52.136;5.424;2024-02-26T08:38:40;100515.56;;;5.25;100.00
76694;BME280;69667;52.136;5.424;2024-02-26T08:41:33;100526.94;;;5.28;100.00
76694;BME280;69667;52.136;5.424;2024-02-26T08:44:03;100530.75;;;5.24;100.00
76694;BME280;69667;52.136;5.424;2024-02-26T08:46:31;100535.34;;;5.22;100.00
76694;BME280;69667;52.136;5.424;2024-02-26T08:49:00;100534.19;;;5.26;100.00
76694;BME280;69667;52.136;5.424;2024-02-26T08:51:29;100535.94;;;5.27;100.00
76694;BME280;69667;52.136;5.424;2024-02-26T08:53:57;100534.09;;;5.28;100.00
76694;BME280;69667;52.136;5.424;2024-02-26T08:56:25;100557.06;;;5.32;100.00
76694;BME280;69667;52.136;5.424;2024-02-26T09:02:44;100559.06;;;5.28;100.00
76694;BME280;69667;52.136;5.424;2024-02-26T09:05:15;100559.06;;;5.28;100.00
76694;BME280;69667;52.136;5.424;2024-02-26T09:07:43;100548.63;;;5.24;100.00
76694;BME280;69667;52.136;5.424;2024-02-26T09:10:12;100554.06;;;5.22;100.00
76694;BME280;69667;52.136;5.424;2024-02-26T09:12:41;100564.78;;;5.22;100.00
76694;BME280;69667;52.136;5.424;2024-02-26T09:15:10;100562.09;;;5.22;100.00
76694;BME280;69667;52.136;5.424;2024-02-26T09:17:40;100569.44;;;5.18;100.00
76694;BME280;69667;52.136;5.424;2024-02-26T09:20:10;100563.13;;;5.19;100.00
76694;BME280;69667;52.136;5.424;2024-02-26T09:22:38;100574.59;;;5.22;100.00
76694;BME280;69667;52.136;5.424;2024-02-26T09:25:07;100572.03;;;5.20;100.00
76694;BME280;69667;52.136;5.424;2024-02-26T09:27:35;100575.63;;;5.19;100.00
76694;BME280;69667;52.136;5.424;2024-02-26T09:30:10;100585.31;;;5.22;100.00
76694;BME280;69667;52.136;5.424;2024-02-26T09:32:40;100587.19;;;5.19;100.00
76694;BME280;69667;52.136;5.424;2024-02-26T09:35:09;100587.19;;;5.19;100.00
76694;BME280;69667;52.136;5.424;2024-02-26T09:37:52;100591.69;;;5.19;100.00
76694;BME280;69667;52.136;5.424;2024-02-26T09:40:27;100594.34;;;5.19;100.00
76694;BME280;69667;52.136;5.424;2024-02-26T09:43:05;100603.94;;;5.23;100.00
76694;BME280;69667;52.136;5.424;2024-02-26T09:45:33;100598.59;;;5.23;100.00
76694;BME280;69667;52.136;5.424;2024-02-26T09:48:04;100598.59;;;5.23;100.00
76694;BME280;69667;52.136;5.424;2024-02-26T09:50:36;100603.06;;;5.22;100.00
76694;BME280;69667;52.136;5.424;2024-02-26T09:53:22;100600.31;;;5.24;100.00
76694;BME280;69667;52.136;5.424;2024-02-26T09:55:58;100608.28;;;5.26;100.00
76694;BME280;69667;52.136;5.424;2024-02-26T10:01:31;100623.19;;;5.30;100.00
76694;BME280;69667;52.136;5.424;2024-02-26T10:04:05;100630.34;;;5.29;100.00
76694;BME280;69667;52.136;5.424;2024-02-26T10:06:37;100625.69;;;5.33;100.00
76694;BME280;69667;52.136;5.424;2024-02-26T10:09:10;100634.56;;;5.33;100.00
76694;BME280;69667;52.136;5.424;2024-02-26T10:11:41;100633.00;;;5.29;100.00
76694;BME280;69667;52.136;5.424;2024-02-26T10:14:11;100623.19;;;5.30;100.00
76694;BME280;69667;52.136;5.424;2024-02-26T10:16:39;100637.53;;;5.29;100.00
76694;BME280;69667;52.136;5.424;2024-02-26T10:19:08;100641.91;;;5.30;100.00
76694;BME280;69667;52.136;5.424;2024-02-26T10:21:37;100639.06;;;5.33;100.00
76694;BME280;69667;52.136;5.424;2024-02-26T10:24:13;100647.78;;;5.36;100.00
76694;BME280;69667;52.136;5.424;2024-02-26T10:27:10;100657.63;;;5.36;100.00
76694;BME280;69667;52.136;5.424;2024-02-26T10:29:39;100661.06;;;5.38;100.00
76694;BME280;69667;52.136;5.424;2024-02-26T10:32:08;100664.53;;;5.40;100.00
76694;BME280;69667;52.136;5.424;2024-02-26T10:34:45;100676.97;;;5.41;100.00
76694;BME280;69667;52.136;5.424;2024-02-26T10:37:14;100669.78;;;5.41;100.00
76694;BME280;69667;52.136;5.424;2024-02-26T10:39:47;100669.56;;;5.46;100.00
76694;BME280;69667;52.136;5.424;2024-02-26T10:42:16;100681.28;;;5.43;100.00
76694;BME280;69667;52.136;5.424;2024-02-26T10:44:47;100681.28;;;5.43;100.00
76694;BME280;69667;52.136;5.424;2024-02-26T10:47:18;100683.78;;;5.46;100.00
76694;BME280;69667;52.136;5.424;2024-02-26T10:50:16;100689.81;;;5.50;100.00
76694;BME280;69667;52.136;5.424;2024-02-26T10:52:45;100686.25;;;5.49;100.00
76694;BME280;69667;52.136;5.424;2024-02-26T10:55:17;100695.16;;;5.50;100.00
76694;BME280;69667;52.136;5.424;2024-02-26T10:57:47;100696.66;;;5.55;100.00
76694;BME280;69667;52.136;5.424;2024-02-26T11:00:16;100705.47;;;5.57;100.00
76694;BME280;69667;52.136;5.424;2024-02-26T11:02:47;100715.97;;;5.60;100.00
76694;BME280;69667;52.136;5.424;2024-02-26T11:05:17;100720.88;;;5.68;100.00
76694;BME280;69667;52.136;5.424;2024-02-26T11:07:45;100720.75;;;5.71;100.00
76694;BME280;69667;52.136;5.424;2024-02-26T11:10:15;100718.91;;;5.71;100.00
76694;BME280;69667;52.136;5.424;2024-02-26T11:12:47;100725.13;;;5.72;100.00
76694;BME280;69667;52.136;5.424;2024-02-26T11:15:16;100720.78;;;5.69;100.00
76694;BME280;69667;52.136;5.424;2024-02-26T11:17:46;100728.06;;;5.67;100.00
76694;BME280;69667;52.136;5.424;2024-02-26T11:20:15;100726.50;;;5.63;100.00
76694;BME280;69667;52.136;5.424;2024-02-26T11:22:44;100739.63;;;5.68;100.00
76694;BME280;69667;52.136;5.424;2024-02-26T11:25:39;100733.16;;;5.72;100.00
76694;BME280;69667;52.136;5.424;2024-02-26T11:28:12;100733.34;;;5.69;100.00
76694;BME280;69667;52.136;5.424;2024-02-26T11:31:26;100741.28;;;5.70;100.00
76694;BME280;69667;52.136;5.424;2024-02-26T11:34:03;100746.72;;;5.69;100.00
76694;BME280;69667;52.136;5.424;2024-02-26T11:36:32;100742.47;;;5.65;100.00
76694;BME280;69667;52.136;5.424;2024-02-26T11:39:04;100745.25;;;5.63;100.00
76694;BME280;69667;52.136;5.424;2024-02-26T11:41:33;100746.03;;;5.65;100.00
76694;BME280;69667;52.136;5.424;2024-02-26T11:47:19;100759.84;;;5.58;100.00
76694;BME280;69667;52.136;5.424;2024-02-26T11:49:54;100764.25;;;5.59;100.00
76694;BME280;69667;52.136;5.424;2024-02-26T11:52:23;100770.53;;;5.58;100.00
76694;BME280;69667;52.136;5.424;2024-02-26T11:54:53;100771.16;;;5.63;100.00
76694;BME280;69667;52.136;5.424;2024-02-26T11:57:29;100773.50;;;5.69;100.00
76694;BME280;69667;52.136;5.424;2024-02-26T12:00:14;100771.34;;;5.75;100.00
76694;BME280;69667;52.136;5.424;2024-02-26T12:02:50;100776.59;;;5.77;100.00
76694;BME280;69667;52.136;5.424;2024-02-26T12:05:32;100771.94;;;5.80;100.00
76694;BME280;69667;52.136;5.424;2024-02-26T12:08:04;100782.41;;;5.85;100.00
76694;BME280;69667;52.136;5.424;2024-02-26T12:10:36;100782.41;;;5.85;100.00
76694;BME280;69667;52.136;5.424;2024-02-26T12:13:16;100789.50;;;5.86;100.00
76694;BME280;69667;52.136;5.424;2024-02-26T12:15:56;100790.53;;;5.83;100.00
76694;BME280;69667;52.136;5.424;2024-02-26T12:18:26;100795.81;;;5.85;100.00
76694;BME280;69667;52.136;5.424;2024-02-26T12:21:03;100805.50;;;5.87;100.00
76694;BME280;69667;52.136;5.424;2024-02-26T12:23:32;100798.41;;;5.86;100.00
76694;BME280;69667;52.136;5.424;2024-02-26T12:26:03;100802.66;;;5.90;100.00
76694;BME280;69667;52.136;5.424;2024-02-26T12:28:35;100809.81;;;5.90;100.00
76694;BME280;69667;52.136;5.424;2024-02-26T12:31:04;100808.59;;;5.95;100.00
76694;BME280;69667;52.136;5.424;2024-02-26T12:33:47;100805.84;;;5.97;100.00
76694;BME280;69667;52.136;5.424;2024-02-26T12:36:17;100814.13;;;5.92;100.00
76694;BME280;69667;52.136;5.424;2024-02-26T12:38:58;100816.72;;;5.94;100.00
76694;BME280;69667;52.136;5.424;2024-02-26T12:41:32;100824.69;;;5.95;100.00
76694;BME280;69667;52.136;5.424;2024-02-26T12:44:03;100823.91;;;5.93;100.00
76694;BME280;69667;52.136;5.424;2024-02-26T12:46:33;100818.34;;;5.96;100.00
76694;BME280;69667;52.136;5.424;2024-02-26T12:49:02;100821.91;;;5.97;100.00
76694;BME280;69667;52.136;5.424;2024-02-26T12:51:31;100822.69;;;5.99;100.00
76694;BME280;69667;52.136;5.424;2024-02-26T12:54:02;100828.97;;;5.98;100.00
76694;BME280;69667;52.136;5.424;2024-02-26T12:56:48;100837.09;;;5.96;100.00
76694;BME280;69667;52.136;5.424;2024-02-26T12:59:17;100828.13;;;5.97;100.00
76694;BME280;69667;52.136;5.424;2024-02-26T13:01:58;100836.94;;;5.99;100.00
76694;BME280;69667;52.136;5.424;2024-02-26T13:04:30;100844.13;;;5.99;100.00
76694;BME280;69667;52.136;5.424;2024-02-26T13:06:58;100839.69;;;5.98;100.00
76694;BME280;69667;52.136;5.424;2024-02-26T13:09:33;100834.25;;;5.99;100.00
76694;BME280;69667;52.136;5.424;2024-02-26T13:12:20;100847.66;;;5.99;100.00
76694;BME280;69667;52.136;5.424;2024-02-26T13:15:00;100860.00;;;6.02;100.00
76694;BME280;69667;52.136;5.424;2024-02-26T13:17:46;100855.44;;;6.04;100.00
76694;BME280;69667;52.136;5.424;2024-02-26T13:20:26;100855.00;;;6.11;100.00
76694;BME280;69667;52.136;5.424;2024-02-26T13:25:40;100867.78;;;6.06;100.00
76694;BME280;69667;52.136;5.424;2024-02-26T13:28:17;100864.94;;;6.09;100.00
76694;BME280;69667;52.136;5.424;2024-02-26T13:30:54;100879.09;;;6.11;100.00
76694;BME280;69667;52.136;5.424;2024-02-26T13:33:26;100877.38;;;6.10;100.00
76694;BME280;69667;52.136;5.424;2024-02-26T13:35:56;100876.53;;;6.10;100.00
76694;BME280;69667;52.136;5.424;2024-02-26T13:38:25;100875.72;;;6.08;100.00